Time;durP1;ratioP1;P1;durP2;ratioP2;P2;SDS_P1;SDS_P2;PMS_P1;PMS_P2;Temp;Humidity;BMP_temperature;BMP_pressure;BME280_temperature;BME280_humidity;BME280_pressure;Samples;Min_cycle;Max_cycle;Signal;HPM_P1;HPM_P2
2022/07/17 00:01:04;;;;;;;2.00;1.90;;;;;;;;;;5036161;28;20206;-88
2022/07/17 00:03:31;;;;;;;2.03;1.90;;;;;;;;;;5035745;28;20234;-88
2022/07/17 00:05:58;;;;;;;8.27;2.23;;;;;;;;;;5036211;28;20253;-88
2022/07/17 00:08:25;;;;;;;4.63;1.90;;;;;;;;;;5035526;28;20313;-88
2022/07/17 00:10:52;;;;;;;2.07;1.87;;;;;;;;;;5036003;28;20211;-88
2022/07/17 00:13:19;;;;;;;3.07;2.10;;;;;;;;;;5035418;28;20245;-88
2022/07/17 00:15:48;;;;;;;2.43;2.23;;;;;;;;;;5036363;28;20213;-88
2022/07/17 00:18:15;;;;;;;5.63;2.17;;;;;;;;;;5035950;28;20230;-88
2022/07/17 00:20:43;;;;;;;2.40;2.17;;;;;;;;;;5036142;28;20194;-88
2022/07/17 00:23:10;;;;;;;2.73;2.20;;;;;;;;;;5035666;28;20242;-88
2022/07/17 00:25:38;;;;;;;2.33;1.77;;;;;;;;;;5035962;28;20235;-88
2022/07/17 00:28:06;;;;;;;2.60;2.40;;;;;;;;;;5035246;28;20578;-88
2022/07/17 00:30:33;;;;;;;3.97;1.83;;;;;;;;;;5035759;28;20616;-88
2022/07/17 00:33:01;;;;;;;2.47;2.27;;;;;;;;;;5035433;28;20239;-87
2022/07/17 00:35:28;;;;;;;2.80;1.67;;;;;;;;;;5037022;28;20206;-88
2022/07/17 00:37:56;;;;;;;4.40;2.13;;;;;;;;;;5035280;28;20234;-88
2022/07/17 00:40:24;;;;;;;2.10;1.90;;;;;;;;;;5035779;28;20207;-89
2022/07/17 00:42:52;;;;;;;4.57;2.10;;;;;;;;;;5034808;28;20596;-88
2022/07/17 00:45:19;;;;;;;2.93;2.23;;;;;;;;;;5035583;28;20226;-88
2022/07/17 00:47:51;;;;;;;2.10;1.90;;;;;;;;;;5034843;28;20214;-88
2022/07/17 00:50:19;;;;;;;2.13;1.93;;;;;;;;;;5035324;28;20199;-88
2022/07/17 00:52:46;;;;;;;3.37;2.10;;;;;;;;;;5034608;28;20223;-88
2022/07/17 00:55:14;;;;;;;5.10;1.90;;;;;;;;;;5035684;28;20202;-88
2022/07/17 00:57:42;;;;;;;3.47;2.00;;;;;;;;;;5034507;28;20207;-88
2022/07/17 01:00:10;;;;;;;1.93;1.83;;;;;;;;;;5034652;28;20222;-88
2022/07/17 01:02:37;;;;;;;2.10;2.00;;;;;;;;;;5047025;28;20693;-88
2022/07/17 01:05:05;;;;;;;3.47;2.20;;;;;;;;;;5050324;28;20312;-88
2022/07/17 01:07:33;;;;;;;2.37;2.07;;;;;;;;;;5049506;28;20202;-88
2022/07/17 01:10:01;;;;;;;5.57;2.07;;;;;;;;;;5054525;28;20755;-88
2022/07/17 01:12:28;;;;;;;2.90;2.10;;;;;;;;;;5054704;28;20234;-88
2022/07/17 01:14:57;;;;;;;2.67;2.03;;;;;;;;;;5054567;28;20312;-88
2022/07/17 01:17:24;;;;;;;2.33;2.13;;;;;;;;;;5054716;28;20210;-88
2022/07/17 01:19:51;;;;;;;2.10;2.00;;;;;;;;;;5054212;28;20233;-88
2022/07/17 01:22:19;;;;;;;2.13;2.03;;;;;;;;;;5054403;28;20292;-88
2022/07/17 01:24:47;;;;;;;2.40;2.20;;;;;;;;;;5053731;28;20307;-88
2022/07/17 01:27:14;;;;;;;3.03;2.43;;;;;;;;;;5054424;28;20202;-88
2022/07/17 01:29:41;;;;;;;2.30;2.10;;;;;;;;;;5053901;28;20271;-88
2022/07/17 01:32:08;;;;;;;2.03;1.90;;;;;;;;;;5054268;28;20241;-88
2022/07/17 01:34:35;;;;;;;2.60;2.20;;;;;;;;;;5053554;28;20718;-88
2022/07/17 01:37:02;;;;;;;2.50;2.30;;;;;;;;;;5054371;28;20210;-88
2022/07/17 01:42:15;;;;;;;2.30;2.10;;;;;;;;;;5054063;28;20217;-88
2022/07/17 01:44:42;;;;;;;2.93;2.63;;;;;;;;;;5053531;28;20260;-88
2022/07/17 01:47:09;;;;;;;5.03;2.23;;;;;;;;;;5053836;28;20206;-88
2022/07/17 01:49:36;;;;;;;2.87;2.20;;;;;;;;;;5053424;28;20288;-88
2022/07/17 01:52:03;;;;;;;2.67;2.17;;;;;;;;;;5053985;28;20233;-88
2022/07/17 01:54:31;;;;;;;2.50;2.30;;;;;;;;;;5053182;28;20657;-88
2022/07/17 01:56:58;;;;;;;3.27;2.67;;;;;;;;;;5053785;28;20210;-88
2022/07/17 01:59:25;;;;;;;5.33;2.23;;;;;;;;;;5052737;28;20236;-88
2022/07/17 02:01:52;;;;;;;2.43;2.23;;;;;;;;;;5053193;28;20226;-88
2022/07/17 02:04:20;;;;;;;4.70;2.50;;;;;;;;;;5052412;28;20234;-88
2022/07/17 02:06:47;;;;;;;2.30;2.10;;;;;;;;;;5052677;28;20226;-88
2022/07/17 02:09:14;;;;;;;2.10;2.00;;;;;;;;;;5052961;28;20233;-88
2022/07/17 02:11:42;;;;;;;2.10;2.00;;;;;;;;;;5053374;28;20242;-88
2022/07/17 02:14:09;;;;;;;2.30;2.20;;;;;;;;;;5055513;28;20234;-87
2022/07/17 02:16:36;;;;;;;5.17;2.30;;;;;;;;;;5057684;28;20205;-87
2022/07/17 02:19:04;;;;;;;2.30;2.10;;;;;;;;;;5054427;28;20234;-88
2022/07/17 02:21:31;;;;;;;2.83;2.20;;;;;;;;;;5055959;28;20217;-88
2022/07/17 02:23:58;;;;;;;2.40;2.20;;;;;;;;;;5060997;28;20482;-88
2022/07/17 02:26:25;;;;;;;2.87;2.13;;;;;;;;;;5058036;28;20236;-88
2022/07/17 02:28:54;;;;;;;5.30;2.83;;;;;;;;;;5053757;28;20238;-88
2022/07/17 02:31:21;;;;;;;2.43;2.23;;;;;;;;;;5059070;28;20229;-87
2022/07/17 02:33:48;;;;;;;3.60;2.20;;;;;;;;;;5056980;28;20241;-88
2022/07/17 02:36:15;;;;;;;4.30;2.50;;;;;;;;;;5054326;28;20206;-87
2022/07/17 02:38:42;;;;;;;2.57;2.30;;;;;;;;;;5057067;28;20240;-88
2022/07/17 02:41:09;;;;;;;2.87;2.10;;;;;;;;;;5058469;28;20201;-87
2022/07/17 02:43:36;;;;;;;2.30;2.10;;;;;;;;;;5054079;28;20241;-88
2022/07/17 02:46:05;;;;;;;3.73;2.17;;;;;;;;;;5055511;28;20226;-87
2022/07/17 02:48:32;;;;;;;3.67;2.50;;;;;;;;;;5053843;28;20241;-88
2022/07/17 02:50:59;;;;;;;3.57;2.07;;;;;;;;;;5052757;28;20360;-88
2022/07/17 02:53:26;;;;;;;2.60;2.40;;;;;;;;;;5052443;28;20232;-87
2022/07/17 02:55:53;;;;;;;2.30;2.10;;;;;;;;;;5053095;28;20209;-88
2022/07/17 02:58:20;;;;;;;3.60;2.37;;;;;;;;;;5052405;28;20225;-87
2022/07/17 03:00:47;;;;;;;2.43;2.23;;;;;;;;;;5052631;28;20206;-88
2022/07/17 03:03:16;;;;;;;2.50;2.30;;;;;;;;;;5052159;28;20241;-88
2022/07/17 03:05:43;;;;;;;2.00;1.90;;;;;;;;;;5052347;28;20926;-88
2022/07/17 03:08:10;;;;;;;2.60;2.30;;;;;;;;;;5052161;28;20233;-88
2022/07/17 03:10:37;;;;;;;2.37;2.20;;;;;;;;;;5052548;28;20214;-88
2022/07/17 03:13:04;;;;;;;2.67;2.47;;;;;;;;;;5051653;28;20291;-89
2022/07/17 03:15:32;;;;;;;2.87;2.67;;;;;;;;;;5052048;28;20701;-88
2022/07/17 03:17:59;;;;;;;2.70;2.50;;;;;;;;;;5051975;28;20253;-87
2022/07/17 03:20:27;;;;;;;3.03;2.60;;;;;;;;;;5052421;28;20662;-88
2022/07/17 03:22:54;;;;;;;3.03;2.80;;;;;;;;;;5050977;28;20240;-87
2022/07/17 03:25:21;;;;;;;3.00;2.80;;;;;;;;;;5052502;28;20255;-88
2022/07/17 03:27:48;;;;;;;4.37;2.43;;;;;;;;;;5051728;28;20198;-88
2022/07/17 03:30:15;;;;;;;2.80;2.60;;;;;;;;;;5052153;28;20229;-88
2022/07/17 03:32:42;;;;;;;3.03;2.67;;;;;;;;;;5051399;28;20713;-88
2022/07/17 03:35:10;;;;;;;2.23;2.13;;;;;;;;;;5053087;28;20221;-88
2022/07/17 03:37:38;;;;;;;2.53;2.37;;;;;;;;;;5053315;28;20205;-88
2022/07/17 03:40:06;;;;;;;3.23;2.93;;;;;;;;;;5052892;28;20210;-88
2022/07/17 03:42:33;;;;;;;6.50;2.83;;;;;;;;;;5051390;28;20725;-87
2022/07/17 03:45:00;;;;;;;2.63;2.50;;;;;;;;;;5052239;28;20220;-88
2022/07/17 03:47:27;;;;;;;3.00;2.57;;;;;;;;;;5052049;28;20252;-88
2022/07/17 03:49:54;;;;;;;2.83;2.67;;;;;;;;;;5051956;28;20907;-88
2022/07/17 03:52:21;;;;;;;3.70;2.70;;;;;;;;;;5051817;28;20604;-87
2022/07/17 03:54:50;;;;;;;2.80;2.50;;;;;;;;;;5051305;28;20233;-87
2022/07/17 03:57:17;;;;;;;3.13;2.80;;;;;;;;;;5051576;28;20209;-88
2022/07/17 03:59:44;;;;;;;2.93;2.67;;;;;;;;;;5045591;28;20230;-88
2022/07/17 04:02:11;;;;;;;2.77;2.57;;;;;;;;;;5032000;28;20227;-88
2022/07/17 04:04:38;;;;;;;2.67;2.47;;;;;;;;;;5031396;28;20247;-88
2022/07/17 04:07:05;;;;;;;3.03;2.83;;;;;;;;;;5031825;28;20226;-88
2022/07/17 04:09:32;;;;;;;3.30;2.67;;;;;;;;;;5031235;28;20250;-88
2022/07/17 04:12:01;;;;;;;3.10;2.90;;;;;;;;;;5031913;28;20243;-89
2022/07/17 04:14:28;;;;;;;2.53;2.33;;;;;;;;;;5031532;28;20237;-88
2022/07/17 04:16:55;;;;;;;3.83;2.80;;;;;;;;;;5032390;28;20210;-88
2022/07/17 04:19:22;;;;;;;3.90;3.10;;;;;;;;;;5031397;28;20242;-88
2022/07/17 04:21:49;;;;;;;2.90;2.67;;;;;;;;;;5031760;28;20223;-88
2022/07/17 04:24:16;;;;;;;6.97;3.17;;;;;;;;;;5031396;28;20238;-88
2022/07/17 04:26:43;;;;;;;3.30;3.00;;;;;;;;;;5031840;28;20577;-88
2022/07/17 04:29:11;;;;;;;3.17;2.90;;;;;;;;;;5031231;28;20239;-88
2022/07/17 04:31:38;;;;;;;4.60;2.63;;;;;;;;;;5031607;28;20231;-88
2022/07/17 04:34:05;;;;;;;3.73;3.43;;;;;;;;;;5032593;28;20253;-88
2022/07/17 04:36:32;;;;;;;3.07;2.77;;;;;;;;;;5036100;28;20623;-88
2022/07/17 04:38:59;;;;;;;4.20;3.30;;;;;;;;;;5034925;28;20241;-88
2022/07/17 04:41:26;;;;;;;10.77;3.20;;;;;;;;;;5035895;28;20242;-88
2022/07/17 04:43:54;;;;;;;6.73;3.30;;;;;;;;;;5034920;28;20238;-88
2022/07/17 04:46:22;;;;;;;5.33;3.47;;;;;;;;;;5035553;28;20595;-88
2022/07/17 04:48:49;;;;;;;5.73;3.30;;;;;;;;;;5034894;28;20726;-88
2022/07/17 04:51:16;;;;;;;3.87;3.57;;;;;;;;;;5035720;28;20217;-88
2022/07/17 04:53:43;;;;;;;4.20;2.97;;;;;;;;;;5034867;28;20245;-89
2022/07/17 04:56:10;;;;;;;3.57;3.10;;;;;;;;;;5035678;28;20199;-88
2022/07/17 04:58:37;;;;;;;6.47;3.10;;;;;;;;;;5035031;28;20242;-88
2022/07/17 05:01:07;;;;;;;3.47;2.90;;;;;;;;;;5035680;28;20568;-88
2022/07/17 05:03:37;;;;;;;6.67;3.33;;;;;;;;;;5052537;28;20560;-89
2022/07/17 05:06:05;;;;;;;5.13;3.53;;;;;;;;;;5036388;28;20226;-89
2022/07/17 05:08:32;;;;;;;7.17;3.07;;;;;;;;;;5036354;28;20231;-89
2022/07/17 05:10:59;;;;;;;5.23;3.50;;;;;;;;;;5035926;28;20210;-88
2022/07/17 05:13:26;;;;;;;3.70;3.40;;;;;;;;;;5035554;28;20238;-89
2022/07/17 05:15:53;;;;;;;3.60;3.00;;;;;;;;;;5035648;28;20210;-88
2022/07/17 05:18:20;;;;;;;4.57;3.60;;;;;;;;;;5034947;28;20226;-88
2022/07/17 05:20:49;;;;;;;3.97;3.00;;;;;;;;;;5035212;28;20668;-88
2022/07/17 05:23:16;;;;;;;3.67;3.30;;;;;;;;;;5034659;28;20237;-88
2022/07/17 05:25:43;;;;;;;3.43;3.13;;;;;;;;;;5034877;28;20203;-88
2022/07/17 05:28:10;;;;;;;3.47;3.17;;;;;;;;;;5034779;28;20230;-88
2022/07/17 05:30:38;;;;;;;6.30;3.50;;;;;;;;;;5035208;28;20234;-88
2022/07/17 05:33:05;;;;;;;4.60;3.23;;;;;;;;;;5034342;28;20242;-88
2022/07/17 05:35:32;;;;;;;4.03;3.30;;;;;;;;;;5034847;28;20565;-88
2022/07/17 05:38:00;;;;;;;3.50;3.20;;;;;;;;;;5034304;28;20226;-88
2022/07/17 05:40:27;;;;;;;5.63;3.07;;;;;;;;;;5034813;28;20214;-88
2022/07/17 05:42:54;;;;;;;4.60;3.17;;;;;;;;;;5033567;28;20230;-88
2022/07/17 05:45:21;;;;;;;3.50;3.20;;;;;;;;;;5034279;28;20199;-88
2022/07/17 05:47:49;;;;;;;3.50;3.20;;;;;;;;;;5034323;28;20258;-88
2022/07/17 05:50:16;;;;;;;3.23;2.93;;;;;;;;;;5035527;28;20237;-88
2022/07/17 05:52:43;;;;;;;3.03;2.83;;;;;;;;;;5034995;28;20695;-88
2022/07/17 05:55:11;;;;;;;3.83;3.03;;;;;;;;;;5037205;28;20213;-88
2022/07/17 05:57:38;;;;;;;4.13;2.90;;;;;;;;;;5052357;28;20207;-87
2022/07/17 06:00:06;;;;;;;2.67;2.47;;;;;;;;;;5061464;28;20201;-88
2022/07/17 06:02:33;;;;;;;2.67;2.47;;;;;;;;;;5069086;28;20234;-88
2022/07/17 06:05:00;;;;;;;3.93;2.77;;;;;;;;;;5069029;28;20279;-88
2022/07/17 06:07:27;;;;;;;2.97;2.77;;;;;;;;;;5070436;28;20222;-88
2022/07/17 06:09:54;;;;;;;3.57;2.67;;;;;;;;;;5069875;28;20233;-88
2022/07/17 06:12:23;;;;;;;4.07;2.70;;;;;;;;;;5055509;28;20737;-88
2022/07/17 06:14:50;;;;;;;3.20;2.50;;;;;;;;;;5053794;28;20241;-88
2022/07/17 06:17:17;;;;;;;2.87;2.60;;;;;;;;;;5055202;28;20210;-88
2022/07/17 06:19:44;;;;;;;3.73;2.43;;;;;;;;;;5053924;28;20234;-87
2022/07/17 06:22:11;;;;;;;2.90;2.70;;;;;;;;;;5054169;28;20719;-88
2022/07/17 06:24:38;;;;;;;2.77;2.20;;;;;;;;;;5053461;28;20236;-88
2022/07/17 06:27:05;;;;;;;2.50;2.30;;;;;;;;;;5053812;28;20210;-88
2022/07/17 06:29:34;;;;;;;3.73;2.30;;;;;;;;;;5053339;28;20733;-89
2022/07/17 06:32:01;;;;;;;2.20;2.10;;;;;;;;;;5053169;28;20230;-88
2022/07/17 06:34:28;;;;;;;2.33;2.07;;;;;;;;;;5052631;28;20229;-88
2022/07/17 06:36:55;;;;;;;1.70;1.60;;;;;;;;;;5053072;28;20419;-87
2022/07/17 06:39:22;;;;;;;2.77;1.80;;;;;;;;;;5052622;28;20717;-88
2022/07/17 06:41:49;;;;;;;2.17;1.67;;;;;;;;;;5053093;28;20230;-88
2022/07/17 06:44:16;;;;;;;2.97;2.07;;;;;;;;;;5052862;28;20244;-87
2022/07/17 06:46:45;;;;;;;12.93;2.27;;;;;;;;;;5054788;28;20229;-87
2022/07/17 06:49:12;;;;;;;8.10;1.77;;;;;;;;;;5052269;28;20234;-88
2022/07/17 06:51:39;;;;;;;2.10;1.90;;;;;;;;;;5052894;28;20229;-88
2022/07/17 06:54:06;;;;;;;2.83;1.87;;;;;;;;;;5052699;28;20238;-88
2022/07/17 06:56:33;;;;;;;2.33;1.60;;;;;;;;;;5052423;28;20204;-89
2022/07/17 06:59:00;;;;;;;1.58;1.48;;;;;;;;;;5054049;28;20665;-88
2022/07/17 07:01:27;;;;;;;1.65;1.52;;;;;;;;;;5052952;28;20232;-87
2022/07/17 07:03:55;;;;;;;6.85;1.60;;;;;;;;;;5053099;28;20663;-88
2022/07/17 07:06:23;;;;;;;2.00;1.40;;;;;;;;;;5052911;28;20217;-88
2022/07/17 07:08:50;;;;;;;3.08;1.60;;;;;;;;;;5054763;28;20245;-88
2022/07/17 07:11:17;;;;;;;2.25;1.67;;;;;;;;;;5052442;28;20205;-88
2022/07/17 07:13:44;;;;;;;2.13;1.25;;;;;;;;;;5052325;28;20578;-88
2022/07/17 07:16:11;;;;;;;4.20;1.75;;;;;;;;;;5052556;28;20206;-88
2022/07/17 07:18:38;;;;;;;2.25;1.42;;;;;;;;;;5051835;28;20261;-88
2022/07/17 07:21:06;;;;;;;1.55;1.42;;;;;;;;;;5052165;28;20201;-88
2022/07/17 07:23:34;;;;;;;1.20;1.10;;;;;;;;;;5052797;28;20240;-88
2022/07/17 07:26:01;;;;;;;1.45;1.05;;;;;;;;;;5053128;28;20637;-88
2022/07/17 07:28:28;;;;;;;1.58;1.42;;;;;;;;;;5052392;28;20238;-87
2022/07/17 07:30:55;;;;;;;2.78;1.40;;;;;;;;;;5052953;28;20229;-88
2022/07/17 07:33:22;;;;;;;3.65;1.20;;;;;;;;;;5051546;28;20245;-88
2022/07/17 07:35:49;;;;;;;1.73;1.48;;;;;;;;;;5052779;28;20197;-87
2022/07/17 07:38:18;;;;;;;2.03;1.30;;;;;;;;;;5051630;28;20233;-87
2022/07/17 07:40:45;;;;;;;4.35;1.15;;;;;;;;;;5052234;28;20662;-87
2022/07/17 07:43:12;;;;;;;1.33;1.17;;;;;;;;;;5051749;28;20238;-86
2022/07/17 07:45:39;;;;;;;0.82;0.77;;;;;;;;;;5052225;28;20663;-88
2022/07/17 07:48:06;;;;;;;6.05;1.20;;;;;;;;;;5051663;28;20242;-87
2022/07/17 07:50:33;;;;;;;3.85;1.33;;;;;;;;;;5052501;28;20206;-87
2022/07/17 07:53:00;;;;;;;1.90;0.90;;;;;;;;;;5055545;28;20238;-88
2022/07/17 07:55:29;;;;;;;1.65;0.90;;;;;;;;;;5052278;28;20202;-88
2022/07/17 07:58:02;;;;;;;3.03;0.85;;;;;;;;;;5051633;28;20927;-88
2022/07/17 08:00:29;;;;;;;2.90;1.10;;;;;;;;;;5052113;28;20210;-87
2022/07/17 08:02:56;;;;;;;2.85;1.33;;;;;;;;;;5051161;28;20240;-88
2022/07/17 08:05:24;;;;;;;2.45;1.00;;;;;;;;;;5052189;28;20210;-88
2022/07/17 08:07:51;;;;;;;1.52;0.73;;;;;;;;;;5052100;28;20233;-88
2022/07/17 08:10:18;;;;;;;1.75;1.17;;;;;;;;;;5055595;28;20202;-88
2022/07/17 08:12:46;;;;;;;1.77;0.90;;;;;;;;;;5054963;28;20228;-90
2022/07/17 08:15:14;;;;;;;1.55;0.98;;;;;;;;;;5055916;28;20198;-89
2022/07/17 08:17:41;;;;;;;0.90;0.85;;;;;;;;;;5055420;28;20198;-91
2022/07/17 08:20:08;;;;;;;1.55;0.90;;;;;;;;;;5056288;28;20580;-90
2022/07/17 08:22:35;;;;;;;1.83;0.85;;;;;;;;;;5066630;28;20234;-90
2022/07/17 08:25:03;;;;;;;2.00;0.85;;;;;;;;;;5065054;28;20212;-90
2022/07/17 08:27:35;;;;;;;1.23;0.90;;;;;;;;;;5056938;28;20225;-89
2022/07/17 08:30:04;;;;;;;2.25;1.10;;;;;;;;;;5057340;28;20189;-90
2022/07/17 08:32:31;;;;;;;1.05;0.88;;;;;;;;;;5055514;28;20705;-90
2022/07/17 08:34:58;;;;;;;2.10;1.02;;;;;;;;;;5055506;28;20206;-90
2022/07/17 08:37:25;;;;;;;1.10;0.93;;;;;;;;;;5055438;28;20289;-88
2022/07/17 08:39:52;;;;;;;2.17;1.10;;;;;;;;;;5054845;28;20237;-89
2022/07/17 08:42:19;;;;;;;2.20;1.10;;;;;;;;;;5055268;28;20230;-90
2022/07/17 08:44:47;;;;;;;1.85;1.05;;;;;;;;;;5054790;28;20241;-90
2022/07/17 08:47:15;;;;;;;3.20;0.85;;;;;;;;;;5055060;28;20222;-90
2022/07/17 08:49:45;;;;;;;1.17;1.00;;;;;;;;;;5054749;28;20234;-88
2022/07/17 08:52:12;;;;;;;1.08;0.98;;;;;;;;;;5055057;28;20229;-88
2022/07/17 08:54:39;;;;;;;2.08;1.20;;;;;;;;;;5053888;28;20244;-90
2022/07/17 08:57:07;;;;;;;1.27;0.88;;;;;;;;;;5055168;28;20210;-90
2022/07/17 08:59:34;;;;;;;1.15;0.70;;;;;;;;;;5054183;28;20230;-90
2022/07/17 09:02:01;;;;;;;2.60;0.90;;;;;;;;;;5054650;28;20226;-90
2022/07/17 09:04:30;;;;;;;3.00;1.05;;;;;;;;;;5054251;28;20234;-90
2022/07/17 09:07:01;;;;;;;1.40;1.00;;;;;;;;;;5054924;28;20206;-91
2022/07/17 09:09:29;;;;;;;1.90;1.00;;;;;;;;;;5054154;28;20641;-90
2022/07/17 09:11:58;;;;;;;1.75;0.93;;;;;;;;;;5054393;28;20230;-90
2022/07/17 09:14:25;;;;;;;3.05;1.35;;;;;;;;;;5054546;28;20242;-90
2022/07/17 09:16:53;;;;;;;2.15;0.80;;;;;;;;;;5054542;28;20589;-90
2022/07/17 09:19:27;;;;;;;1.13;1.00;;;;;;;;;;5052732;28;20241;-90
2022/07/17 09:22:05;;;;;;;6.10;0.88;;;;;;;;;;5054653;28;20287;-89
2022/07/17 09:24:41;;;;;;;0.55;0.55;;;;;;;;;;5053868;28;20233;-90
2022/07/17 09:27:08;;;;;;;1.10;0.80;;;;;;;;;;5055079;28;20186;-90
2022/07/17 09:29:35;;;;;;;1.05;0.90;;;;;;;;;;5053751;28;20233;-91
2022/07/17 09:32:02;;;;;;;2.72;0.85;;;;;;;;;;5053734;28;20248;-88
2022/07/17 09:34:29;;;;;;;1.23;0.90;;;;;;;;;;5053385;28;20618;-90
2022/07/17 09:36:59;;;;;;;0.85;0.60;;;;;;;;;;5053769;28;20210;-90
2022/07/17 09:39:36;;;;;;;1.45;0.88;;;;;;;;;;5053819;28;20610;-90
2022/07/17 09:42:03;;;;;;;2.05;0.68;;;;;;;;;;5053942;28;20233;-89
2022/07/17 09:44:30;;;;;;;1.73;1.10;;;;;;;;;;5053419;28;20237;-90
2022/07/17 09:46:57;;;;;;;2.95;0.80;;;;;;;;;;5054116;28;20209;-90
2022/07/17 09:49:27;;;;;;;1.10;0.75;;;;;;;;;;5053836;28;20233;-91
2022/07/17 09:51:54;;;;;;;1.00;0.88;;;;;;;;;;5054708;28;20629;-89
2022/07/17 09:54:22;;;;;;;5.78;0.80;;;;;;;;;;5057732;28;20237;-90
2022/07/17 09:56:51;;;;;;;1.83;1.02;;;;;;;;;;5060093;28;20206;-91
2022/07/17 09:59:19;;;;;;;1.40;0.93;;;;;;;;;;5061717;28;20240;-91
2022/07/17 10:01:49;;;;;;;1.23;0.90;;;;;;;;;;5062980;28;20602;-89
2022/07/17 10:04:17;;;;;;;2.47;0.90;;;;;;;;;;5063539;28;20610;-90
2022/07/17 10:06:44;;;;;;;1.75;0.98;;;;;;;;;;5057729;28;20720;-90
2022/07/17 10:09:13;;;;;;;1.60;0.90;;;;;;;;;;5054999;28;20238;-89
2022/07/17 10:11:41;;;;;;;3.40;1.02;;;;;;;;;;5058989;28;20756;-91
2022/07/17 10:14:11;;;;;;;1.60;1.02;;;;;;;;;;5058138;28;20244;-90
2022/07/17 10:16:39;;;;;;;1.08;0.70;;;;;;;;;;5060887;28;20186;-90
2022/07/17 10:19:16;;;;;;;1.95;0.80;;;;;;;;;;5057968;28;20271;-89
2022/07/17 10:21:53;;;;;;;0.95;0.52;;;;;;;;;;5061771;28;20573;-90
2022/07/17 10:24:20;;;;;;;2.50;0.88;;;;;;;;;;5058159;28;20238;-90
2022/07/17 10:26:49;;;;;;;3.28;0.70;;;;;;;;;;5057956;28;20217;-89
2022/07/17 10:29:31;;;;;;;1.60;0.88;;;;;;;;;;5055370;28;20238;-90
2022/07/17 10:31:59;;;;;;;2.03;1.05;;;;;;;;;;5052571;28;20233;-89
2022/07/17 10:34:39;;;;;;;1.20;1.10;;;;;;;;;;5052662;28;20321;-89
2022/07/17 10:37:15;;;;;;;1.40;0.70;;;;;;;;;;5052873;28;20202;-90
2022/07/17 10:39:53;;;;;;;1.30;1.00;;;;;;;;;;5053495;28;20244;-89
2022/07/17 10:42:35;;;;;;;0.88;0.70;;;;;;;;;;5054355;28;20735;-89
2022/07/17 10:45:08;;;;;;;2.40;0.80;;;;;;;;;;5052856;28;20598;-89
2022/07/17 10:47:44;;;;;;;3.45;1.05;;;;;;;;;;5052210;28;20247;-90
2022/07/17 10:50:12;;;;;;;1.70;1.02;;;;;;;;;;5052779;28;20634;-89
2022/07/17 10:52:39;;;;;;;1.10;0.98;;;;;;;;;;5052346;28;20663;-90
2022/07/17 10:55:06;;;;;;;2.53;0.90;;;;;;;;;;5052635;28;20662;-90
2022/07/17 10:57:34;;;;;;;1.77;0.85;;;;;;;;;;5052140;28;20212;-89
2022/07/17 11:00:02;;;;;;;1.60;1.02;;;;;;;;;;5052819;28;20213;-90
2022/07/17 11:02:31;;;;;;;1.17;0.80;;;;;;;;;;5052380;28;20247;-91
2022/07/17 11:05:06;;;;;;;1.35;1.13;;;;;;;;;;5052808;28;20205;-90
2022/07/17 11:07:33;;;;;;;1.45;0.82;;;;;;;;;;5052332;28;20193;-89
2022/07/17 11:10:02;;;;;;;2.35;0.77;;;;;;;;;;5052821;28;20228;-90
2022/07/17 11:12:32;;;;;;;3.13;1.05;;;;;;;;;;5052958;28;20241;-89
2022/07/17 11:15:03;;;;;;;2.03;0.98;;;;;;;;;;5032748;28;20265;-90
2022/07/17 11:17:31;;;;;;;0.80;0.80;;;;;;;;;;5032394;28;20228;-89
2022/07/17 11:19:59;;;;;;;1.92;0.90;;;;;;;;;;5052731;28;20202;-90
2022/07/17 11:22:27;;;;;;;1.50;0.50;;;;;;;;;;5052706;28;20601;-90
2022/07/17 11:24:54;;;;;;;0.70;0.60;;;;;;;;;;5051805;28;20225;-90
2022/07/17 11:27:22;;;;;;;1.40;1.13;;;;;;;;;;5052895;28;20205;-90
2022/07/17 11:29:51;;;;;;;0.93;0.90;;;;;;;;;;5052605;28;20287;-87
2022/07/17 11:32:18;;;;;;;1.38;0.60;;;;;;;;;;5052445;28;20257;-88
2022/07/17 11:34:47;;;;;;;1.48;0.93;;;;;;;;;;5051843;28;20240;-88
2022/07/17 11:37:14;;;;;;;0.82;0.80;;;;;;;;;;5052204;28;20197;-87
2022/07/17 11:39:42;;;;;;;2.00;0.80;;;;;;;;;;5051869;28;20293;-87
2022/07/17 11:42:10;;;;;;;2.08;1.20;;;;;;;;;;5052018;28;20229;-88
2022/07/17 11:44:38;;;;;;;2.25;0.70;;;;;;;;;;5056438;28;20232;-87
2022/07/17 11:47:05;;;;;;;1.02;0.90;;;;;;;;;;5056590;28;20658;-89
2022/07/17 11:49:33;;;;;;;1.33;0.88;;;;;;;;;;5056307;28;20237;-88
2022/07/17 11:52:08;;;;;;;1.17;0.75;;;;;;;;;;5056763;28;20278;-88
2022/07/17 11:54:44;;;;;;;0.98;0.95;;;;;;;;;;5056219;28;20732;-86
2022/07/17 11:57:12;;;;;;;0.75;0.75;;;;;;;;;;5056712;28;20205;-87
2022/07/17 11:59:39;;;;;;;0.63;0.63;;;;;;;;;;5055752;28;20228;-89
2022/07/17 12:02:09;;;;;;;2.08;0.80;;;;;;;;;;5056574;28;20303;-88
2022/07/17 12:04:36;;;;;;;0.80;0.80;;;;;;;;;;5055762;28;20283;-87
2022/07/17 12:07:05;;;;;;;1.10;1.00;;;;;;;;;;5058099;28;20209;-88
2022/07/17 12:09:34;;;;;;;1.80;0.70;;;;;;;;;;5058578;28;20239;-90
2022/07/17 12:12:01;;;;;;;2.67;0.93;;;;;;;;;;5069110;28;20229;-89
2022/07/17 12:14:29;;;;;;;1.33;0.77;;;;;;;;;;5057349;28;20233;-88
2022/07/17 12:16:58;;;;;;;2.97;1.10;;;;;;;;;;5057090;28;20205;-88
2022/07/17 12:19:25;;;;;;;1.85;0.80;;;;;;;;;;5055889;28;20234;-88
2022/07/17 12:21:57;;;;;;;1.20;1.02;;;;;;;;;;5055344;28;20602;-88
2022/07/17 12:24:27;;;;;;;0.63;0.63;;;;;;;;;;5055727;28;20237;-88
2022/07/17 12:26:55;;;;;;;1.40;0.63;;;;;;;;;;5056026;28;20609;-88
2022/07/17 12:29:22;;;;;;;1.58;0.95;;;;;;;;;;5055691;28;20257;-87
2022/07/17 12:31:49;;;;;;;1.17;0.77;;;;;;;;;;5056349;28;20225;-88
2022/07/17 12:34:16;;;;;;;1.27;0.90;;;;;;;;;;5055400;28;20337;-89
2022/07/17 12:36:43;;;;;;;1.15;0.90;;;;;;;;;;5056669;28;20232;-88
2022/07/17 12:39:10;;;;;;;3.25;0.70;;;;;;;;;;5055000;28;20236;-88
2022/07/17 12:41:39;;;;;;;1.45;0.95;;;;;;;;;;5055331;28;20244;-88
2022/07/17 12:44:06;;;;;;;1.55;0.75;;;;;;;;;;5055024;28;20713;-88
2022/07/17 12:46:33;;;;;;;1.88;0.70;;;;;;;;;;5056227;28;20209;-88
2022/07/17 12:49:00;;;;;;;1.88;1.17;;;;;;;;;;5057010;28;20233;-88
2022/07/17 12:51:27;;;;;;;0.82;0.70;;;;;;;;;;5055091;28;20222;-85
2022/07/17 12:53:54;;;;;;;1.25;0.82;;;;;;;;;;5056156;28;20241;-85
2022/07/17 12:56:21;;;;;;;0.70;0.70;;;;;;;;;;5054654;28;20693;-85
2022/07/17 12:58:49;;;;;;;0.70;0.60;;;;;;;;;;5054651;28;20291;-85
2022/07/17 13:01:16;;;;;;;0.93;0.77;;;;;;;;;;5055780;28;20206;-85
2022/07/17 13:03:44;;;;;;;0.95;0.82;;;;;;;;;;5055574;28;20233;-86
2022/07/17 13:06:11;;;;;;;1.45;0.85;;;;;;;;;;5057495;28;20292;-86
2022/07/17 13:08:38;;;;;;;0.90;0.90;;;;;;;;;;5055139;28;20240;-85
2022/07/17 13:11:06;;;;;;;0.80;0.80;;;;;;;;;;5055536;28;20216;-85
2022/07/17 13:13:33;;;;;;;0.47;0.47;;;;;;;;;;5060126;28;20220;-81
2022/07/17 13:16:01;;;;;;;0.80;0.80;;;;;;;;;;5078299;28;20194;-86
2022/07/17 13:18:29;;;;;;;0.80;0.70;;;;;;;;;;5070443;28;20239;-86
2022/07/17 13:20:56;;;;;;;1.75;0.65;;;;;;;;;;5055589;28;20666;-85
2022/07/17 13:23:23;;;;;;;1.02;0.75;;;;;;;;;;5054722;28;20236;-87
2022/07/17 13:25:52;;;;;;;1.25;1.15;;;;;;;;;;5059240;28;20201;-86
2022/07/17 13:28:19;;;;;;;1.23;0.80;;;;;;;;;;5060516;28;20599;-87
2022/07/17 13:30:47;;;;;;;1.00;0.73;;;;;;;;;;5056962;28;20194;-88
2022/07/17 13:33:15;;;;;;;0.70;0.70;;;;;;;;;;5055251;28;20678;-88
2022/07/17 13:35:43;;;;;;;2.58;1.70;;;;;;;;;;5054855;28;20197;-87
2022/07/17 13:38:10;;;;;;;1.70;0.70;;;;;;;;;;5054501;28;20226;-86
2022/07/17 13:40:37;;;;;;;0.75;0.50;;;;;;;;;;5054321;28;20206;-87
2022/07/17 13:43:04;;;;;;;0.98;0.90;;;;;;;;;;5053155;28;20233;-87
2022/07/17 13:45:32;;;;;;;0.90;0.90;;;;;;;;;;5054160;28;20193;-86
2022/07/17 13:47:59;;;;;;;1.60;0.77;;;;;;;;;;5054098;28;20232;-87
2022/07/17 13:50:28;;;;;;;0.70;0.70;;;;;;;;;;5053815;28;20225;-87
2022/07/17 13:52:55;;;;;;;1.90;0.85;;;;;;;;;;5053711;28;20290;-88
2022/07/17 13:55:23;;;;;;;0.55;0.55;;;;;;;;;;5054266;28;20723;-88
2022/07/17 13:57:50;;;;;;;0.80;0.80;;;;;;;;;;5053590;28;20241;-88
2022/07/17 14:00:17;;;;;;;1.15;1.05;;;;;;;;;;5054294;28;20201;-87
2022/07/17 14:02:44;;;;;;;1.48;0.90;;;;;;;;;;5053257;28;20260;-89
2022/07/17 14:05:11;;;;;;;1.48;1.10;;;;;;;;;;5053862;28;20225;-84
2022/07/17 14:07:40;;;;;;;0.65;0.65;;;;;;;;;;5053064;28;20575;-89
2022/07/17 14:10:07;;;;;;;1.55;1.33;;;;;;;;;;5054264;28;20222;-89
2022/07/17 14:12:35;;;;;;;1.75;1.65;;;;;;;;;;5053527;28;20229;-90
2022/07/17 14:15:02;;;;;;;3.47;0.80;;;;;;;;;;5054668;28;20206;-89
2022/07/17 14:17:29;;;;;;;1.02;0.80;;;;;;;;;;5053930;28;20233;-90
2022/07/17 14:19:56;;;;;;;0.70;0.57;;;;;;;;;;5053718;28;20226;-90
2022/07/17 14:22:23;;;;;;;1.20;0.73;;;;;;;;;;5053986;28;20226;-90
2022/07/17 14:24:52;;;;;;;1.98;1.00;;;;;;;;;;5053601;28;20705;-89
2022/07/17 14:27:19;;;;;;;1.45;0.70;;;;;;;;;;5053611;28;20693;-90
2022/07/17 14:29:50;;;;;;;1.60;1.45;;;;;;;;;;5052937;28;20233;-90
2022/07/17 14:32:17;;;;;;;1.50;0.90;;;;;;;;;;5053708;28;20653;-90
2022/07/17 14:34:44;;;;;;;1.45;0.80;;;;;;;;;;5052897;28;20241;-90
2022/07/17 14:37:11;;;;;;;2.00;1.13;;;;;;;;;;5053727;28;20213;-92
2022/07/17 14:39:38;;;;;;;1.27;0.82;;;;;;;;;;5053725;28;20239;-90
2022/07/17 14:42:07;;;;;;;1.63;0.70;;;;;;;;;;5054232;28;20679;-90
2022/07/17 14:44:34;;;;;;;4.03;0.68;;;;;;;;;;5055362;28;20233;-90
2022/07/17 14:47:01;;;;;;;0.90;0.77;;;;;;;;;;5073989;28;20206;-90
2022/07/17 14:49:28;;;;;;;0.73;0.73;;;;;;;;;;5071672;28;20241;-90